createdAt,value
2019-06-01T00:02:12.983Z,14.73
2019-06-01T00:05:32.405Z,14.73
2019-06-01T00:08:57.572Z,14.67
2019-06-01T00:12:16.848Z,14.62
2019-06-01T00:15:36.468Z,14.57
2019-06-01T00:19:01.351Z,14.50
2019-06-01T00:22:09.216Z,14.42
2019-06-01T00:25:16.394Z,14.37
2019-06-01T00:28:23.562Z,14.32
2019-06-01T00:31:30.806Z,14.27
2019-06-01T00:34:38.078Z,14.22
2019-06-01T00:37:45.630Z,14.19
2019-06-01T00:40:52.920Z,14.16
2019-06-01T00:44:00.271Z,14.11
2019-06-01T00:47:07.500Z,14.06
2019-06-01T00:50:14.735Z,14.04
2019-06-01T00:53:21.982Z,14.01
2019-06-01T00:56:29.365Z,13.98
2019-06-01T00:59:36.537Z,13.95
2019-06-01T01:02:55.806Z,13.97
2019-06-01T01:06:21.000Z,13.95
2019-06-01T01:09:28.199Z,13.89
2019-06-01T01:13:04.925Z,13.95
2019-06-01T01:16:26.141Z,13.93
2019-06-01T01:19:45.615Z,13.95
2019-06-01T01:23:04.215Z,13.95
2019-06-01T01:26:22.977Z,13.95
2019-06-01T01:29:42.241Z,13.95
2019-06-01T01:32:49.588Z,13.92
2019-06-01T01:36:07.629Z,13.97
2019-06-01T01:39:14.919Z,13.95
2019-06-01T01:42:34.103Z,14.04
2019-06-01T01:45:59.053Z,14.06
2019-06-01T01:49:18.152Z,14.08
2019-06-01T01:52:25.455Z,14.05
2019-06-01T01:55:43.563Z,14.12
2019-06-01T01:58:52.203Z,14.06
2019-06-01T02:01:59.463Z,14.04
2019-06-01T02:05:06.973Z,14.05
2019-06-01T02:08:26.482Z,14.12
2019-06-01T02:11:33.844Z,14.08
2019-06-01T02:14:59.784Z,14.12
2019-06-01T02:18:07.188Z,14.10
2019-06-01T02:21:14.536Z,14.10
2019-06-01T02:24:21.752Z,14.11
2019-06-01T02:27:28.978Z,14.09
2019-06-01T02:30:36.434Z,14.10
2019-06-01T02:33:43.610Z,14.10
2019-06-01T02:36:49.940Z,14.11
2019-06-01T02:39:58.393Z,14.14
2019-06-01T02:43:16.576Z,14.18
2019-06-01T02:46:36.260Z,14.17
2019-06-01T02:49:43.580Z,14.17
2019-06-01T02:52:50.823Z,14.17
2019-06-01T02:55:57.839Z,14.19
2019-06-01T02:59:23.070Z,14.22
2019-06-01T03:02:30.543Z,14.20
2019-06-01T03:05:50.017Z,14.28
2019-06-01T03:09:09.669Z,14.30
2019-06-01T03:12:28.483Z,14.31
2019-06-01T03:15:48.324Z,14.37
2019-06-01T03:18:55.779Z,14.35
2019-06-01T03:22:16.163Z,14.39
2019-06-01T03:25:23.794Z,14.36
2019-06-01T03:28:44.413Z,14.42
2019-06-01T03:31:51.698Z,14.39
2019-06-01T03:34:59.019Z,14.41
2019-06-01T03:38:06.980Z,14.41
2019-06-01T03:41:26.011Z,14.49
2019-06-01T03:44:51.736Z,14.45
2019-06-01T03:47:59.023Z,14.41
2019-06-01T03:51:24.155Z,14.46
2019-06-01T03:54:31.534Z,14.43
2019-06-01T03:57:50.671Z,14.48
2019-06-01T04:00:57.918Z,14.43
2019-06-01T04:04:05.289Z,14.42
2019-06-01T04:07:30.655Z,14.46
2019-06-01T04:10:38.160Z,14.44
2019-06-01T04:13:45.415Z,14.46
2019-06-01T04:16:52.719Z,14.45
2019-06-01T04:20:00.028Z,14.46
2019-06-01T04:23:08.068Z,14.50
2019-06-01T04:26:27.539Z,14.57
2019-06-01T04:29:35.441Z,14.56
2019-06-01T04:33:00.707Z,14.63
2019-06-01T04:36:20.054Z,14.66
2019-06-01T04:39:27.623Z,14.63
2019-06-01T04:42:46.386Z,14.70
2019-06-01T04:45:53.812Z,14.68
2019-06-01T04:49:13.409Z,14.77
2019-06-01T04:52:20.961Z,14.75
2019-06-01T04:55:28.212Z,14.77
2019-06-01T04:58:33.891Z,14.80
2019-06-01T05:01:41.443Z,14.87
2019-06-01T05:04:48.740Z,14.92
2019-06-01T05:07:56.326Z,14.96
2019-06-01T05:11:21.496Z,15.01
2019-06-01T05:14:40.631Z,15.09
2019-06-01T05:18:07.870Z,15.10
2019-06-01T05:21:15.603Z,15.07
2019-06-01T05:24:23.994Z,15.11
2019-06-01T05:27:30.532Z,15.13
2019-06-01T05:30:38.070Z,15.14
2019-06-01T05:33:45.259Z,15.15
2019-06-01T05:36:52.656Z,15.18
2019-06-01T05:39:59.975Z,15.21
2019-06-01T05:43:10.770Z,15.23
2019-06-01T05:46:16.243Z,15.25
2019-06-01T05:49:23.481Z,15.27
2019-06-01T05:52:42.673Z,15.38
2019-06-01T05:55:49.936Z,15.37
2019-06-01T05:59:15.972Z,15.45
2019-06-01T06:02:40.921Z,15.47
2019-06-01T06:06:00.174Z,15.52
2019-06-01T06:09:08.676Z,15.51
2019-06-01T06:12:17.198Z,15.53
2019-06-01T06:15:24.493Z,15.54
2019-06-01T06:18:31.771Z,15.60
2019-06-01T06:21:37.496Z,15.63
2019-06-01T06:24:44.840Z,15.68
2019-06-01T06:27:52.112Z,15.70
2019-06-01T06:30:59.737Z,15.72
2019-06-01T06:34:19.700Z,15.81
2019-06-01T06:37:27.039Z,15.81
2019-06-01T06:40:34.306Z,15.86
2019-06-01T06:43:41.495Z,15.92
2019-06-01T06:46:48.452Z,16.06
2019-06-01T06:49:55.717Z,16.15
2019-06-01T06:53:25.375Z,16.22
2019-06-01T06:56:36.423Z,16.37
2019-06-01T06:59:43.821Z,16.37
2019-06-01T07:03:06.175Z,16.65
2019-06-01T07:06:31.344Z,16.83
2019-06-01T07:09:38.631Z,16.83
2019-06-01T07:12:58.369Z,17.11
2019-06-01T07:16:17.675Z,17.28
2019-06-01T07:19:25.740Z,17.35
2019-06-01T07:22:32.982Z,17.45
2019-06-01T07:25:40.249Z,17.55
2019-06-01T07:28:46.545Z,17.66
2019-06-01T07:32:06.164Z,17.77
2019-06-01T07:35:32.537Z,17.84
2019-06-01T07:38:39.982Z,17.84
2019-06-01T07:41:47.712Z,17.87
2019-06-01T07:45:06.911Z,17.88
2019-06-01T07:48:25.546Z,17.91
2019-06-01T07:51:44.274Z,17.95
2019-06-01T07:55:03.644Z,18.04
2019-06-01T07:58:28.812Z,18.15
2019-06-01T08:01:36.600Z,18.24
2019-06-01T08:04:55.899Z,18.47
2019-06-01T08:08:15.128Z,18.63
2019-06-01T08:11:25.394Z,18.63
2019-06-01T08:14:43.229Z,18.73
2019-06-01T08:18:02.492Z,18.76
2019-06-01T08:21:09.769Z,18.75
2019-06-01T08:24:28.955Z,18.83
2019-06-01T08:27:36.255Z,18.84
2019-06-01T08:30:54.889Z,18.92
2019-06-01T08:34:20.688Z,18.89
2019-06-01T08:37:45.946Z,18.94
2019-06-01T08:40:52.762Z,18.98
2019-06-01T08:44:00.058Z,19.04
2019-06-01T08:47:07.328Z,19.10
2019-06-01T08:50:13.621Z,19.11
2019-06-01T08:53:20.820Z,19.18
2019-06-01T08:56:28.301Z,19.18
2019-06-01T08:59:35.608Z,19.22
2019-06-01T09:02:43.271Z,19.23
2019-06-01T09:05:49.491Z,19.24
2019-06-01T09:15:17.587Z,19.31
2019-06-01T09:22:50.647Z,19.63
2019-06-01T09:26:14.872Z,19.77
2019-06-01T09:29:44.840Z,19.95
2019-06-01T09:33:28.408Z,20.15
2019-06-01T09:49:12.267Z,21.09
2019-06-01T09:54:34.703Z,21.74
2019-06-01T09:56:39.895Z,21.58
2019-06-01T10:00:17.708Z,21.44
2019-06-01T10:28:27.627Z,21.41
2019-06-01T10:31:34.849Z,21.41
2019-06-01T10:34:42.133Z,21.52
2019-06-01T10:38:01.344Z,21.62
2019-06-01T10:41:08.612Z,21.64
2019-06-01T10:54:54.420Z,21.81
2019-06-01T10:58:01.847Z,21.72
2019-06-01T11:01:26.949Z,21.83
2019-06-01T11:05:49.989Z,21.87
2019-06-01T11:17:26.267Z,21.92
2019-06-01T11:21:11.242Z,21.93
2019-06-01T11:28:16.293Z,22.06
2019-06-01T11:31:36.024Z,22.00
2019-06-01T11:34:44.474Z,22.05
2019-06-01T11:38:03.658Z,22.14
2019-06-01T11:41:21.796Z,22.20
2019-06-01T11:44:29.392Z,22.19
2019-06-01T11:47:47.792Z,22.20
2019-06-01T11:51:17.846Z,22.25
2019-06-01T11:54:37.101Z,22.35
2019-06-01T11:58:02.225Z,22.35
2019-06-01T12:01:21.414Z,22.45
2019-06-01T12:04:28.759Z,22.42
2019-06-01T12:07:47.800Z,22.55
2019-06-01T12:10:55.078Z,22.57
2019-06-01T12:14:02.362Z,22.58
2019-06-01T12:17:21.484Z,22.74
2019-06-01T12:25:28.660Z,22.83
2019-06-01T12:38:08.820Z,22.87
2019-06-01T12:41:39.676Z,22.90
2019-06-01T12:49:06.821Z,23.06
2019-06-01T12:52:36.441Z,23.13
2019-06-01T12:56:00.933Z,23.26
2019-06-01T12:59:08.221Z,23.24
2019-06-01T13:02:26.937Z,23.38
2019-06-01T13:05:52.102Z,23.43
2019-06-01T13:08:59.626Z,23.44
2019-06-01T13:12:24.587Z,23.53
2019-06-01T13:15:32.064Z,23.47
2019-06-01T13:18:57.364Z,23.60
2019-06-01T13:22:15.832Z,23.61
2019-06-01T13:25:23.033Z,23.59
2019-06-01T13:28:38.129Z,23.70
2019-06-01T13:32:12.207Z,23.78
2019-06-01T13:35:31.556Z,23.83
2019-06-01T13:38:50.854Z,23.85
2019-06-01T13:42:16.019Z,23.95
2019-06-01T13:45:41.175Z,24.01
2019-06-01T13:48:49.790Z,23.99
2019-06-01T13:51:57.235Z,23.90
2019-06-01T13:55:16.478Z,23.94
2019-06-01T13:58:41.264Z,24.03
2019-06-01T14:02:10.519Z,24.09
2019-06-01T14:05:17.784Z,24.06
2019-06-01T14:08:37.245Z,24.17
2019-06-01T14:11:45.256Z,24.16
2019-06-01T14:14:53.455Z,24.17
2019-06-01T14:18:00.983Z,24.22
2019-06-01T14:21:08.171Z,24.28
2019-06-01T14:24:15.456Z,24.33
2019-06-01T14:27:22.635Z,24.38
2019-06-01T14:30:29.904Z,24.36
2019-06-01T14:33:37.502Z,24.40
2019-06-01T14:36:44.829Z,24.38
2019-06-01T14:39:52.881Z,24.37
2019-06-01T14:43:00.369Z,24.42
2019-06-01T14:46:08.070Z,24.42
2019-06-01T14:49:15.705Z,24.46
2019-06-01T14:52:35.390Z,24.57
2019-06-01T14:56:00.583Z,24.59
2019-06-01T14:59:20.389Z,24.60
2019-06-01T15:02:39.094Z,24.61
2019-06-01T15:05:46.380Z,24.58
2019-06-01T15:09:10.558Z,24.59
2019-06-01T15:12:18.787Z,24.63
2019-06-01T15:15:26.066Z,24.55
2019-06-01T15:18:51.681Z,24.63
2019-06-01T15:21:59.230Z,24.58
2019-06-01T15:25:18.365Z,24.58
2019-06-01T15:28:37.535Z,24.57
2019-06-01T15:31:44.714Z,24.52
2019-06-01T15:35:10.087Z,24.56
2019-06-01T15:38:17.376Z,24.53
2019-06-01T15:41:24.716Z,24.53
2019-06-01T15:44:31.946Z,24.51
2019-06-01T15:47:39.454Z,24.48
2019-06-01T15:50:46.660Z,24.43
2019-06-01T15:53:54.808Z,24.38
2019-06-01T15:57:02.721Z,24.35
2019-06-01T16:00:10.451Z,24.34
2019-06-01T16:03:36.043Z,24.30
2019-06-01T16:06:43.225Z,24.23
2019-06-01T16:09:50.576Z,24.20
2019-06-01T16:13:09.259Z,24.21
2019-06-01T16:16:16.472Z,24.14
2019-06-01T16:19:23.637Z,24.12
2019-06-01T16:22:29.753Z,24.06
2019-06-01T16:25:37.122Z,24.01
2019-06-01T16:28:44.448Z,23.93
2019-06-01T16:31:51.664Z,23.88
2019-06-01T16:34:58.951Z,23.86
2019-06-01T16:38:06.351Z,23.81
2019-06-01T16:41:13.970Z,23.77
2019-06-01T16:44:21.266Z,23.69
2019-06-01T16:47:28.547Z,23.63
2019-06-01T16:50:53.423Z,23.56
2019-06-01T16:54:12.156Z,23.49
2019-06-01T16:57:19.435Z,23.37
2019-06-01T17:08:50.702Z,23.15
2019-06-01T17:12:15.291Z,23.09
2019-06-01T17:15:34.591Z,23.00
2019-06-01T17:18:53.511Z,22.96
2019-06-01T17:22:01.445Z,22.82
2019-06-01T17:25:08.916Z,22.76
2019-06-01T17:28:16.285Z,22.67
2019-06-01T17:31:23.696Z,22.61
2019-06-01T17:34:31.136Z,22.52
2019-06-01T17:37:38.299Z,22.43
2019-06-01T17:40:45.640Z,22.35
2019-06-01T17:44:11.414Z,22.26
2019-06-01T17:47:18.700Z,22.16
2019-06-01T17:50:37.351Z,22.11
2019-06-01T17:54:05.013Z,22.04
2019-06-01T17:57:12.163Z,21.89
2019-06-01T18:00:19.482Z,21.77
2019-06-01T18:03:26.803Z,21.68
2019-06-01T18:06:34.506Z,21.55
2019-06-01T18:09:41.774Z,21.44
2019-06-01T18:12:49.204Z,21.35
2019-06-01T18:16:08.342Z,21.27
2019-06-01T18:19:15.665Z,21.12
2019-06-01T18:22:53.200Z,21.00
2019-06-01T18:26:00.533Z,20.88
2019-06-01T18:29:08.618Z,20.79
2019-06-01T18:32:36.039Z,20.72
2019-06-01T18:35:42.250Z,20.56
2019-06-01T18:38:49.707Z,20.49
2019-06-01T18:41:56.954Z,20.43
2019-06-01T18:45:05.641Z,20.35
2019-06-01T18:48:14.381Z,20.22
2019-06-01T18:51:21.898Z,20.12
2019-06-01T18:54:29.280Z,20.02
2019-06-01T18:57:36.815Z,19.93
2019-06-01T19:00:56.154Z,19.89
2019-06-01T19:04:15.986Z,19.80
2019-06-01T19:07:23.276Z,19.67
2019-06-01T19:10:30.555Z,19.60
2019-06-01T19:13:37.856Z,19.48
2019-06-01T19:16:45.199Z,19.41
2019-06-01T19:19:52.482Z,19.35
2019-06-01T19:22:59.817Z,19.28
2019-06-01T19:26:11.571Z,19.19
2019-06-01T19:29:17.016Z,19.12
2019-06-01T19:32:24.361Z,19.04
2019-06-01T19:35:31.838Z,18.96
2019-06-01T19:38:40.218Z,18.86
2019-06-01T19:41:47.372Z,18.80
2019-06-01T19:44:54.689Z,18.71
2019-06-01T19:48:01.862Z,18.61
2019-06-01T19:51:10.596Z,18.52
2019-06-01T19:54:19.028Z,18.43
2019-06-01T19:57:26.453Z,18.28
2019-06-01T20:00:33.742Z,18.17
2019-06-01T20:03:40.916Z,18.11
2019-06-01T20:06:48.115Z,17.98
2019-06-01T20:09:55.638Z,17.90
2019-06-01T20:13:03.137Z,17.83
2019-06-01T20:16:10.756Z,17.74
2019-06-01T20:19:30.330Z,17.71
2019-06-01T20:22:56.108Z,17.63
2019-06-01T20:26:03.513Z,17.56
2019-06-01T20:29:28.158Z,17.51
2019-06-01T20:32:46.815Z,17.39
2019-06-01T20:36:12.115Z,17.30
2019-06-01T20:39:20.264Z,17.18
2019-06-01T20:42:39.625Z,17.17
2019-06-01T20:45:45.948Z,17.06
2019-06-01T20:48:53.333Z,16.96
2019-06-01T20:51:59.597Z,16.90
2019-06-01T20:55:07.902Z,16.81
2019-06-01T20:58:13.844Z,16.76
2019-06-01T21:01:21.956Z,16.69
2019-06-01T21:04:29.306Z,16.62
2019-06-01T21:07:36.887Z,16.54
2019-06-01T21:10:44.286Z,16.49
2019-06-01T21:13:51.459Z,16.42
2019-06-01T21:16:58.928Z,16.36
2019-06-01T21:20:28.601Z,16.31
2019-06-01T21:23:50.438Z,16.28
2019-06-01T21:27:16.536Z,16.26
2019-06-01T21:30:24.599Z,16.18
2019-06-01T21:33:32.835Z,16.13
2019-06-01T21:36:41.892Z,16.10
2019-06-01T21:39:48.965Z,15.91
2019-06-01T21:43:06.811Z,15.91
2019-06-01T21:46:05.482Z,15.91
2019-06-01T21:49:30.583Z,15.92
2019-06-01T21:52:37.865Z,15.84
2019-06-01T21:55:57.910Z,15.78
2019-06-01T21:59:22.889Z,15.72
2019-06-01T22:02:30.152Z,15.64
2019-06-01T22:05:55.646Z,15.62
2019-06-01T22:09:14.749Z,15.55
2019-06-01T22:12:33.388Z,15.52
2019-06-01T22:15:40.623Z,15.40
2019-06-01T22:18:47.884Z,15.37
2019-06-01T22:22:13.013Z,15.33
2019-06-01T22:25:20.934Z,15.22
2019-06-01T22:28:47.156Z,15.21
2019-06-01T22:31:54.412Z,15.13
2019-06-01T22:35:20.821Z,15.12
2019-06-01T22:38:28.183Z,14.99
2019-06-01T22:41:35.435Z,14.94
2019-06-01T22:44:42.625Z,14.88
2019-06-01T22:47:49.851Z,14.81
2019-06-01T22:50:57.148Z,14.77
2019-06-01T22:54:04.891Z,14.70
2019-06-01T22:57:12.230Z,14.67
2019-06-01T23:00:19.648Z,14.63
2019-06-01T23:03:27.981Z,14.54
2019-06-01T23:06:46.883Z,14.57
2019-06-01T23:10:12.366Z,14.55
2019-06-01T23:13:52.311Z,14.53
2019-06-01T23:16:58.207Z,14.48
2019-06-01T23:20:06.700Z,14.37
2019-06-01T23:23:14.264Z,14.36
2019-06-01T23:26:33.583Z,14.35
2019-06-01T23:29:40.875Z,14.27
2019-06-01T23:33:00.022Z,14.27
2019-06-01T23:36:07.265Z,14.18
2019-06-01T23:39:14.045Z,14.11
2019-06-01T23:42:22.555Z,14.07
2019-06-01T23:45:30.918Z,14.04
2019-06-01T23:48:49.795Z,14.03
2019-06-01T23:52:08.996Z,13.97
2019-06-01T23:55:34.292Z,13.93
2019-06-01T23:58:41.519Z,13.84
